sensor_id;sensor_type;location;lat;lon;timestamp;P1;durP1;ratioP1;P2;durP2;ratioP2
69954;SDS011;57279;55.912;37.490;2023-05-07T00:00:27;10.45;;;4.00;;
69954;SDS011;57279;55.912;37.490;2023-05-07T00:02:53;11.82;;;3.75;;
69954;SDS011;57279;55.912;37.490;2023-05-07T00:05:19;8.98;;;2.95;;
69954;SDS011;57279;55.912;37.490;2023-05-07T00:07:46;8.93;;;2.80;;
69954;SDS011;57279;55.912;37.490;2023-05-07T00:10:12;11.77;;;3.45;;
69954;SDS011;57279;55.912;37.490;2023-05-07T00:12:38;9.23;;;2.65;;
69954;SDS011;57279;55.912;37.490;2023-05-07T00:15:03;12.55;;;3.78;;
69954;SDS011;57279;55.912;37.490;2023-05-07T00:17:32;12.48;;;3.40;;
69954;SDS011;57279;55.912;37.490;2023-05-07T00:19:58;10.82;;;3.35;;
69954;SDS011;57279;55.912;37.490;2023-05-07T00:22:24;12.05;;;3.80;;
69954;SDS011;57279;55.912;37.490;2023-05-07T00:24:49;10.93;;;4.03;;
69954;SDS011;57279;55.912;37.490;2023-05-07T00:27:15;11.38;;;4.25;;
69954;SDS011;57279;55.912;37.490;2023-05-07T00:29:41;9.43;;;3.30;;
69954;SDS011;57279;55.912;37.490;2023-05-07T00:32:07;15.70;;;4.45;;
69954;SDS011;57279;55.912;37.490;2023-05-07T00:36:58;10.43;;;3.33;;
69954;SDS011;57279;55.912;37.490;2023-05-07T00:39:24;9.35;;;3.00;;
69954;SDS011;57279;55.912;37.490;2023-05-07T00:41:50;10.02;;;3.13;;
69954;SDS011;57279;55.912;37.490;2023-05-07T00:46:43;13.80;;;2.60;;
69954;SDS011;57279;55.912;37.490;2023-05-07T00:49:10;11.27;;;2.88;;
69954;SDS011;57279;55.912;37.490;2023-05-07T00:51:36;10.73;;;3.05;;
69954;SDS011;57279;55.912;37.490;2023-05-07T00:54:02;12.90;;;3.75;;
69954;SDS011;57279;55.912;37.490;2023-05-07T00:58:54;10.82;;;3.28;;
69954;SDS011;57279;55.912;37.490;2023-05-07T01:01:20;10.80;;;3.20;;
69954;SDS011;57279;55.912;37.490;2023-05-07T01:03:46;12.05;;;3.40;;
69954;SDS011;57279;55.912;37.490;2023-05-07T01:06:12;9.68;;;3.05;;
69954;SDS011;57279;55.912;37.490;2023-05-07T01:08:42;12.43;;;3.47;;
69954;SDS011;57279;55.912;37.490;2023-05-07T01:11:08;11.95;;;3.53;;
69954;SDS011;57279;55.912;37.490;2023-05-07T01:13:35;11.60;;;3.35;;
69954;SDS011;57279;55.912;37.490;2023-05-07T01:16:03;11.05;;;3.72;;
69954;SDS011;57279;55.912;37.490;2023-05-07T01:20:55;11.20;;;3.22;;
69954;SDS011;57279;55.912;37.490;2023-05-07T01:23:25;10.75;;;3.10;;
69954;SDS011;57279;55.912;37.490;2023-05-07T01:25:53;12.05;;;3.45;;
69954;SDS011;57279;55.912;37.490;2023-05-07T01:28:20;10.63;;;3.42;;
69954;SDS011;57279;55.912;37.490;2023-05-07T01:30:47;10.70;;;3.55;;
69954;SDS011;57279;55.912;37.490;2023-05-07T01:33:19;10.57;;;3.10;;
69954;SDS011;57279;55.912;37.490;2023-05-07T01:35:52;9.50;;;2.88;;
69954;SDS011;57279;55.912;37.490;2023-05-07T01:38:19;11.48;;;3.22;;
69954;SDS011;57279;55.912;37.490;2023-05-07T01:40:47;10.15;;;3.63;;
69954;SDS011;57279;55.912;37.490;2023-05-07T01:43:13;11.13;;;3.22;;
69954;SDS011;57279;55.912;37.490;2023-05-07T01:45:39;14.27;;;3.90;;
69954;SDS011;57279;55.912;37.490;2023-05-07T01:48:06;10.68;;;3.67;;
69954;SDS011;57279;55.912;37.490;2023-05-07T01:50:32;11.75;;;2.92;;
69954;SDS011;57279;55.912;37.490;2023-05-07T01:52:59;9.82;;;3.28;;
69954;SDS011;57279;55.912;37.490;2023-05-07T01:55:27;12.20;;;3.72;;
69954;SDS011;57279;55.912;37.490;2023-05-07T02:00:20;14.88;;;4.07;;
69954;SDS011;57279;55.912;37.490;2023-05-07T02:02:46;12.10;;;3.22;;
69954;SDS011;57279;55.912;37.490;2023-05-07T02:05:30;11.35;;;3.65;;
69954;SDS011;57279;55.912;37.490;2023-05-07T02:08:01;10.82;;;3.20;;
69954;SDS011;57279;55.912;37.490;2023-05-07T02:10:28;8.95;;;2.72;;
69954;SDS011;57279;55.912;37.490;2023-05-07T02:12:54;10.98;;;3.15;;
69954;SDS011;57279;55.912;37.490;2023-05-07T02:15:20;9.00;;;2.83;;
69954;SDS011;57279;55.912;37.490;2023-05-07T02:20:44;9.93;;;3.28;;
69954;SDS011;57279;55.912;37.490;2023-05-07T02:23:10;9.73;;;3.72;;
69954;SDS011;57279;55.912;37.490;2023-05-07T02:25:36;11.07;;;3.83;;
69954;SDS011;57279;55.912;37.490;2023-05-07T02:28:01;12.48;;;3.55;;
69954;SDS011;57279;55.912;37.490;2023-05-07T02:30:47;11.88;;;3.40;;
69954;SDS011;57279;55.912;37.490;2023-05-07T02:33:13;11.93;;;3.10;;
69954;SDS011;57279;55.912;37.490;2023-05-07T02:35:40;10.45;;;3.15;;
69954;SDS011;57279;55.912;37.490;2023-05-07T02:38:06;13.05;;;3.28;;
69954;SDS011;57279;55.912;37.490;2023-05-07T02:40:33;12.23;;;3.38;;
69954;SDS011;57279;55.912;37.490;2023-05-07T02:42:59;8.95;;;2.97;;
69954;SDS011;57279;55.912;37.490;2023-05-07T02:45:25;11.00;;;3.67;;
69954;SDS011;57279;55.912;37.490;2023-05-07T02:47:52;11.73;;;3.67;;
69954;SDS011;57279;55.912;37.490;2023-05-07T02:50:18;11.85;;;3.92;;
69954;SDS011;57279;55.912;37.490;2023-05-07T02:52:44;11.80;;;4.05;;
69954;SDS011;57279;55.912;37.490;2023-05-07T02:55:10;9.40;;;3.58;;
69954;SDS011;57279;55.912;37.490;2023-05-07T02:57:36;10.38;;;3.28;;
69954;SDS011;57279;55.912;37.490;2023-05-07T03:00:20;11.27;;;4.32;;
69954;SDS011;57279;55.912;37.490;2023-05-07T03:03:24;9.48;;;2.95;;
69954;SDS011;57279;55.912;37.490;2023-05-07T03:05:50;9.13;;;3.22;;
69954;SDS011;57279;55.912;37.490;2023-05-07T03:08:16;12.25;;;3.60;;
69954;SDS011;57279;55.912;37.490;2023-05-07T03:10:42;11.60;;;2.80;;
69954;SDS011;57279;55.912;37.490;2023-05-07T03:13:08;10.73;;;3.22;;
69954;SDS011;57279;55.912;37.490;2023-05-07T03:15:34;8.32;;;2.45;;
69954;SDS011;57279;55.912;37.490;2023-05-07T03:17:59;9.60;;;2.95;;
69954;SDS011;57279;55.912;37.490;2023-05-07T03:20:25;9.70;;;2.72;;
69954;SDS011;57279;55.912;37.490;2023-05-07T03:25:17;9.23;;;2.65;;
69954;SDS011;57279;55.912;37.490;2023-05-07T03:27:43;9.45;;;2.80;;
69954;SDS011;57279;55.912;37.490;2023-05-07T03:30:09;9.98;;;2.42;;
69954;SDS011;57279;55.912;37.490;2023-05-07T03:35:05;8.10;;;2.38;;
69954;SDS011;57279;55.912;37.490;2023-05-07T03:37:30;9.95;;;2.60;;
69954;SDS011;57279;55.912;37.490;2023-05-07T03:39:56;11.85;;;2.95;;
69954;SDS011;57279;55.912;37.490;2023-05-07T03:42:23;9.63;;;2.50;;
69954;SDS011;57279;55.912;37.490;2023-05-07T03:44:50;7.13;;;1.80;;
69954;SDS011;57279;55.912;37.490;2023-05-07T03:47:16;10.88;;;2.50;;
69954;SDS011;57279;55.912;37.490;2023-05-07T03:52:08;9.48;;;2.50;;
69954;SDS011;57279;55.912;37.490;2023-05-07T03:54:34;8.25;;;2.17;;
69954;SDS011;57279;55.912;37.490;2023-05-07T03:57:00;8.32;;;2.35;;
69954;SDS011;57279;55.912;37.490;2023-05-07T03:59:27;7.15;;;1.92;;
69954;SDS011;57279;55.912;37.490;2023-05-07T04:01:52;7.40;;;2.42;;
69954;SDS011;57279;55.912;37.490;2023-05-07T04:04:21;9.50;;;2.45;;
69954;SDS011;57279;55.912;37.490;2023-05-07T04:06:47;7.85;;;2.30;;
69954;SDS011;57279;55.912;37.490;2023-05-07T04:09:12;8.60;;;2.42;;
69954;SDS011;57279;55.912;37.490;2023-05-07T04:11:38;8.25;;;2.40;;
69954;SDS011;57279;55.912;37.490;2023-05-07T04:14:07;7.82;;;2.13;;
69954;SDS011;57279;55.912;37.490;2023-05-07T04:16:34;7.25;;;1.85;;
69954;SDS011;57279;55.912;37.490;2023-05-07T04:19:00;8.15;;;3.35;;
69954;SDS011;57279;55.912;37.490;2023-05-07T04:21:26;6.18;;;1.38;;
69954;SDS011;57279;55.912;37.490;2023-05-07T04:23:53;6.25;;;1.52;;
69954;SDS011;57279;55.912;37.490;2023-05-07T04:26:18;7.22;;;1.90;;
69954;SDS011;57279;55.912;37.490;2023-05-07T04:28:45;9.10;;;2.00;;
69954;SDS011;57279;55.912;37.490;2023-05-07T04:31:11;8.25;;;1.90;;
69954;SDS011;57279;55.912;37.490;2023-05-07T04:33:38;7.28;;;1.55;;
69954;SDS011;57279;55.912;37.490;2023-05-07T04:36:06;6.82;;;2.05;;
69954;SDS011;57279;55.912;37.490;2023-05-07T04:38:38;10.43;;;2.03;;
69954;SDS011;57279;55.912;37.490;2023-05-07T04:43:36;6.95;;;1.80;;
69954;SDS011;57279;55.912;37.490;2023-05-07T04:46:02;6.47;;;1.45;;
69954;SDS011;57279;55.912;37.490;2023-05-07T04:48:28;8.25;;;1.80;;
69954;SDS011;57279;55.912;37.490;2023-05-07T04:50:54;6.85;;;1.40;;
69954;SDS011;57279;55.912;37.490;2023-05-07T04:55:48;6.70;;;1.88;;
69954;SDS011;57279;55.912;37.490;2023-05-07T05:00:41;8.90;;;1.73;;
69954;SDS011;57279;55.912;37.490;2023-05-07T05:03:07;5.93;;;1.30;;
69954;SDS011;57279;55.912;37.490;2023-05-07T05:05:34;7.03;;;1.38;;
69954;SDS011;57279;55.912;37.490;2023-05-07T05:08:01;5.57;;;1.50;;
69954;SDS011;57279;55.912;37.490;2023-05-07T05:10:27;5.28;;;1.20;;
69954;SDS011;57279;55.912;37.490;2023-05-07T05:12:52;4.97;;;1.08;;
69954;SDS011;57279;55.912;37.490;2023-05-07T05:15:19;4.53;;;0.90;;
69954;SDS011;57279;55.912;37.490;2023-05-07T05:17:45;5.60;;;1.02;;
69954;SDS011;57279;55.912;37.490;2023-05-07T05:20:11;7.57;;;1.20;;
69954;SDS011;57279;55.912;37.490;2023-05-07T05:22:38;4.97;;;0.82;;
69954;SDS011;57279;55.912;37.490;2023-05-07T05:25:04;6.03;;;1.38;;
69954;SDS011;57279;55.912;37.490;2023-05-07T05:27:31;5.88;;;1.13;;
69954;SDS011;57279;55.912;37.490;2023-05-07T05:29:58;7.25;;;1.15;;
69954;SDS011;57279;55.912;37.490;2023-05-07T05:32:23;7.07;;;1.27;;
69954;SDS011;57279;55.912;37.490;2023-05-07T05:34:52;7.47;;;1.00;;
69954;SDS011;57279;55.912;37.490;2023-05-07T05:37:18;5.15;;;1.00;;
69954;SDS011;57279;55.912;37.490;2023-05-07T05:39:44;9.52;;;1.10;;
69954;SDS011;57279;55.912;37.490;2023-05-07T05:42:10;4.93;;;0.88;;
69954;SDS011;57279;55.912;37.490;2023-05-07T05:44:35;5.95;;;1.10;;
69954;SDS011;57279;55.912;37.490;2023-05-07T05:47:01;6.05;;;1.00;;
69954;SDS011;57279;55.912;37.490;2023-05-07T05:49:28;5.00;;;0.95;;
69954;SDS011;57279;55.912;37.490;2023-05-07T05:51:54;6.25;;;1.00;;
69954;SDS011;57279;55.912;37.490;2023-05-07T05:54:24;5.50;;;0.88;;
69954;SDS011;57279;55.912;37.490;2023-05-07T05:56:53;4.57;;;0.90;;
69954;SDS011;57279;55.912;37.490;2023-05-07T06:01:45;5.25;;;0.85;;
69954;SDS011;57279;55.912;37.490;2023-05-07T06:04:15;4.13;;;0.85;;
69954;SDS011;57279;55.912;37.490;2023-05-07T06:06:41;4.90;;;0.77;;
69954;SDS011;57279;55.912;37.490;2023-05-07T06:09:07;5.00;;;0.70;;
69954;SDS011;57279;55.912;37.490;2023-05-07T06:11:40;5.35;;;0.82;;
69954;SDS011;57279;55.912;37.490;2023-05-07T06:14:06;5.50;;;0.90;;
69954;SDS011;57279;55.912;37.490;2023-05-07T06:16:33;7.53;;;0.98;;
69954;SDS011;57279;55.912;37.490;2023-05-07T06:19:01;4.68;;;1.23;;
69954;SDS011;57279;55.912;37.490;2023-05-07T06:23:53;3.97;;;0.68;;
69954;SDS011;57279;55.912;37.490;2023-05-07T06:26:20;4.93;;;0.90;;
69954;SDS011;57279;55.912;37.490;2023-05-07T06:28:47;5.35;;;0.85;;
69954;SDS011;57279;55.912;37.490;2023-05-07T06:31:14;5.40;;;1.13;;
69954;SDS011;57279;55.912;37.490;2023-05-07T06:33:45;4.55;;;0.90;;
69954;SDS011;57279;55.912;37.490;2023-05-07T06:36:12;4.45;;;0.70;;
69954;SDS011;57279;55.912;37.490;2023-05-07T06:38:38;4.13;;;0.82;;
69954;SDS011;57279;55.912;37.490;2023-05-07T06:43:31;4.75;;;0.90;;
69954;SDS011;57279;55.912;37.490;2023-05-07T06:46:23;3.85;;;0.68;;
69954;SDS011;57279;55.912;37.490;2023-05-07T06:51:15;4.07;;;0.65;;
69954;SDS011;57279;55.912;37.490;2023-05-07T06:56:09;5.03;;;1.00;;
69954;SDS011;57279;55.912;37.490;2023-05-07T06:58:36;5.40;;;0.75;;
69954;SDS011;57279;55.912;37.490;2023-05-07T07:01:03;3.58;;;0.60;;
69954;SDS011;57279;55.912;37.490;2023-05-07T07:03:29;4.72;;;0.63;;
69954;SDS011;57279;55.912;37.490;2023-05-07T07:08:21;4.30;;;0.70;;
69954;SDS011;57279;55.912;37.490;2023-05-07T07:13:13;4.22;;;0.85;;
69954;SDS011;57279;55.912;37.490;2023-05-07T07:18:05;6.32;;;0.90;;
69954;SDS011;57279;55.912;37.490;2023-05-07T07:20:31;3.55;;;0.63;;
69954;SDS011;57279;55.912;37.490;2023-05-07T07:22:58;4.78;;;0.90;;
69954;SDS011;57279;55.912;37.490;2023-05-07T07:27:50;4.22;;;0.70;;
69954;SDS011;57279;55.912;37.490;2023-05-07T07:30:16;18.52;;;1.08;;
69954;SDS011;57279;55.912;37.490;2023-05-07T07:32:45;4.70;;;0.85;;
69954;SDS011;57279;55.912;37.490;2023-05-07T07:37:38;5.25;;;0.90;;
69954;SDS011;57279;55.912;37.490;2023-05-07T07:42:31;7.20;;;0.88;;
69954;SDS011;57279;55.912;37.490;2023-05-07T07:47:24;5.80;;;0.63;;
69954;SDS011;57279;55.912;37.490;2023-05-07T07:49:51;4.53;;;0.88;;
69954;SDS011;57279;55.912;37.490;2023-05-07T07:52:18;2.95;;;0.50;;
69954;SDS011;57279;55.912;37.490;2023-05-07T07:54:44;5.05;;;0.75;;
69954;SDS011;57279;55.912;37.490;2023-05-07T07:59:36;4.80;;;0.80;;
69954;SDS011;57279;55.912;37.490;2023-05-07T08:02:02;4.22;;;1.02;;
69954;SDS011;57279;55.912;37.490;2023-05-07T08:04:28;4.97;;;0.82;;
69954;SDS011;57279;55.912;37.490;2023-05-07T08:06:57;4.38;;;0.70;;
69954;SDS011;57279;55.912;37.490;2023-05-07T08:09:23;3.47;;;0.65;;
69954;SDS011;57279;55.912;37.490;2023-05-07T08:11:50;3.97;;;0.68;;
69954;SDS011;57279;55.912;37.490;2023-05-07T08:16:45;5.20;;;0.75;;
69954;SDS011;57279;55.912;37.490;2023-05-07T08:21:38;5.05;;;0.60;;
69954;SDS011;57279;55.912;37.490;2023-05-07T08:24:05;5.28;;;0.90;;
69954;SDS011;57279;55.912;37.490;2023-05-07T08:28:56;4.47;;;0.80;;
69954;SDS011;57279;55.912;37.490;2023-05-07T08:31:23;4.10;;;0.73;;
69954;SDS011;57279;55.912;37.490;2023-05-07T08:36:15;3.33;;;0.93;;
69954;SDS011;57279;55.912;37.490;2023-05-07T08:41:09;4.13;;;0.90;;
69954;SDS011;57279;55.912;37.490;2023-05-07T08:43:35;3.72;;;0.82;;
69954;SDS011;57279;55.912;37.490;2023-05-07T08:46:03;6.10;;;1.02;;
69954;SDS011;57279;55.912;37.490;2023-05-07T08:48:34;3.75;;;0.70;;
69954;SDS011;57279;55.912;37.490;2023-05-07T08:51:11;4.90;;;0.70;;
69954;SDS011;57279;55.912;37.490;2023-05-07T08:53:39;4.85;;;0.88;;
69954;SDS011;57279;55.912;37.490;2023-05-07T08:56:06;5.85;;;0.90;;
69954;SDS011;57279;55.912;37.490;2023-05-07T08:58:34;4.07;;;1.00;;
69954;SDS011;57279;55.912;37.490;2023-05-07T09:01:01;4.53;;;0.80;;
69954;SDS011;57279;55.912;37.490;2023-05-07T09:03:32;6.10;;;1.27;;
69954;SDS011;57279;55.912;37.490;2023-05-07T09:05:58;4.75;;;0.85;;
69954;SDS011;57279;55.912;37.490;2023-05-07T09:08:26;4.75;;;1.08;;
69954;SDS011;57279;55.912;37.490;2023-05-07T09:10:54;3.08;;;0.63;;
69954;SDS011;57279;55.912;37.490;2023-05-07T09:13:21;5.85;;;0.73;;
69954;SDS011;57279;55.912;37.490;2023-05-07T09:18:13;5.10;;;1.00;;
69954;SDS011;57279;55.912;37.490;2023-05-07T09:20:40;3.83;;;0.80;;
69954;SDS011;57279;55.912;37.490;2023-05-07T09:23:07;4.60;;;0.90;;
69954;SDS011;57279;55.912;37.490;2023-05-07T09:25:34;7.10;;;1.42;;
69954;SDS011;57279;55.912;37.490;2023-05-07T09:28:06;5.88;;;0.63;;
69954;SDS011;57279;55.912;37.490;2023-05-07T09:30:33;5.47;;;0.82;;
69954;SDS011;57279;55.912;37.490;2023-05-07T09:33:03;4.03;;;0.60;;
69954;SDS011;57279;55.912;37.490;2023-05-07T09:35:30;3.70;;;0.85;;
69954;SDS011;57279;55.912;37.490;2023-05-07T09:38:00;5.97;;;0.88;;
69954;SDS011;57279;55.912;37.490;2023-05-07T09:40:29;6.20;;;1.02;;
69954;SDS011;57279;55.912;37.490;2023-05-07T09:43:11;5.80;;;0.90;;
69954;SDS011;57279;55.912;37.490;2023-05-07T09:45:45;3.70;;;0.80;;
69954;SDS011;57279;55.912;37.490;2023-05-07T09:48:17;4.75;;;0.90;;
69954;SDS011;57279;55.912;37.490;2023-05-07T09:50:48;4.05;;;0.63;;
69954;SDS011;57279;55.912;37.490;2023-05-07T09:53:17;4.00;;;0.80;;
69954;SDS011;57279;55.912;37.490;2023-05-07T09:55:44;5.40;;;0.73;;
69954;SDS011;57279;55.912;37.490;2023-05-07T09:58:12;6.40;;;0.90;;
69954;SDS011;57279;55.912;37.490;2023-05-07T10:00:39;5.13;;;0.88;;
69954;SDS011;57279;55.912;37.490;2023-05-07T10:03:09;3.00;;;0.68;;
69954;SDS011;57279;55.912;37.490;2023-05-07T10:05:50;6.57;;;1.08;;
69954;SDS011;57279;55.912;37.490;2023-05-07T10:08:18;4.68;;;0.90;;
69954;SDS011;57279;55.912;37.490;2023-05-07T10:10:47;4.60;;;0.80;;
69954;SDS011;57279;55.912;37.490;2023-05-07T10:13:18;7.85;;;0.80;;
69954;SDS011;57279;55.912;37.490;2023-05-07T10:15:47;3.88;;;0.75;;
69954;SDS011;57279;55.912;37.490;2023-05-07T10:18:14;4.68;;;0.82;;
69954;SDS011;57279;55.912;37.490;2023-05-07T10:20:42;4.13;;;0.70;;
69954;SDS011;57279;55.912;37.490;2023-05-07T10:23:12;3.35;;;0.60;;
69954;SDS011;57279;55.912;37.490;2023-05-07T10:25:43;7.47;;;1.38;;
69954;SDS011;57279;55.912;37.490;2023-05-07T10:28:20;4.28;;;0.90;;
69954;SDS011;57279;55.912;37.490;2023-05-07T10:30:56;4.78;;;0.90;;
69954;SDS011;57279;55.912;37.490;2023-05-07T10:33:41;5.70;;;0.93;;
69954;SDS011;57279;55.912;37.490;2023-05-07T10:36:09;4.75;;;0.93;;
69954;SDS011;57279;55.912;37.490;2023-05-07T10:38:36;4.30;;;0.88;;
69954;SDS011;57279;55.912;37.490;2023-05-07T10:43:43;5.40;;;0.80;;
69954;SDS011;57279;55.912;37.490;2023-05-07T10:46:18;4.97;;;0.90;;
69954;SDS011;57279;55.912;37.490;2023-05-07T10:51:37;6.25;;;1.05;;
69954;SDS011;57279;55.912;37.490;2023-05-07T10:54:22;4.72;;;0.90;;
69954;SDS011;57279;55.912;37.490;2023-05-07T11:05:31;4.85;;;0.93;;
69954;SDS011;57279;55.912;37.490;2023-05-07T11:08:17;5.03;;;1.00;;
69954;SDS011;57279;55.912;37.490;2023-05-07T11:13:48;5.28;;;1.10;;
69954;SDS011;57279;55.912;37.490;2023-05-07T11:16:38;4.95;;;0.90;;
69954;SDS011;57279;55.912;37.490;2023-05-07T11:25:25;7.88;;;1.10;;
69954;SDS011;57279;55.912;37.490;2023-05-07T11:28:10;6.30;;;1.23;;
69954;SDS011;57279;55.912;37.490;2023-05-07T11:30:42;8.38;;;1.35;;
69954;SDS011;57279;55.912;37.490;2023-05-07T11:33:11;5.75;;;1.00;;
69954;SDS011;57279;55.912;37.490;2023-05-07T11:35:39;4.85;;;1.02;;
69954;SDS011;57279;55.912;37.490;2023-05-07T11:38:10;6.13;;;1.10;;
69954;SDS011;57279;55.912;37.490;2023-05-07T11:40:58;9.07;;;1.15;;
69954;SDS011;57279;55.912;37.490;2023-05-07T11:43:26;5.55;;;1.30;;
69954;SDS011;57279;55.912;37.490;2023-05-07T11:45:52;5.47;;;1.33;;
69954;SDS011;57279;55.912;37.490;2023-05-07T11:48:19;6.50;;;1.30;;
69954;SDS011;57279;55.912;37.490;2023-05-07T11:50:51;5.25;;;1.00;;
69954;SDS011;57279;55.912;37.490;2023-05-07T11:53:26;3.33;;;0.65;;
69954;SDS011;57279;55.912;37.490;2023-05-07T11:55:57;5.35;;;1.08;;
69954;SDS011;57279;55.912;37.490;2023-05-07T11:58:24;6.32;;;0.93;;
69954;SDS011;57279;55.912;37.490;2023-05-07T12:00:54;5.30;;;1.02;;
69954;SDS011;57279;55.912;37.490;2023-05-07T12:03:20;6.45;;;1.75;;
69954;SDS011;57279;55.912;37.490;2023-05-07T12:05:47;5.32;;;1.38;;
69954;SDS011;57279;55.912;37.490;2023-05-07T12:08:20;5.65;;;1.25;;
69954;SDS011;57279;55.912;37.490;2023-05-07T12:10:50;5.55;;;1.00;;
69954;SDS011;57279;55.912;37.490;2023-05-07T12:13:19;6.22;;;1.13;;
69954;SDS011;57279;55.912;37.490;2023-05-07T12:15:53;5.65;;;1.00;;
69954;SDS011;57279;55.912;37.490;2023-05-07T12:18:22;7.30;;;1.40;;
69954;SDS011;57279;55.912;37.490;2023-05-07T12:20:53;4.25;;;0.90;;
69954;SDS011;57279;55.912;37.490;2023-05-07T12:23:24;4.90;;;0.95;;
69954;SDS011;57279;55.912;37.490;2023-05-07T12:25:50;6.35;;;1.05;;
69954;SDS011;57279;55.912;37.490;2023-05-07T12:28:17;3.92;;;0.80;;
69954;SDS011;57279;55.912;37.490;2023-05-07T12:30:44;5.75;;;1.50;;
69954;SDS011;57279;55.912;37.490;2023-05-07T12:33:11;6.47;;;1.33;;
69954;SDS011;57279;55.912;37.490;2023-05-07T12:35:38;6.22;;;1.05;;
69954;SDS011;57279;55.912;37.490;2023-05-07T12:38:10;7.85;;;1.23;;
69954;SDS011;57279;55.912;37.490;2023-05-07T12:40:47;8.57;;;1.23;;
69954;SDS011;57279;55.912;37.490;2023-05-07T12:45:45;7.80;;;1.02;;
69954;SDS011;57279;55.912;37.490;2023-05-07T12:48:13;5.15;;;0.93;;
69954;SDS011;57279;55.912;37.490;2023-05-07T12:50:39;6.07;;;0.80;;
69954;SDS011;57279;55.912;37.490;2023-05-07T12:53:06;6.70;;;1.15;;
69954;SDS011;57279;55.912;37.490;2023-05-07T12:55:54;5.22;;;1.02;;
69954;SDS011;57279;55.912;37.490;2023-05-07T12:58:21;6.93;;;1.52;;
69954;SDS011;57279;55.912;37.490;2023-05-07T13:00:54;12.77;;;1.35;;
69954;SDS011;57279;55.912;37.490;2023-05-07T13:03:30;8.55;;;1.63;;
69954;SDS011;57279;55.912;37.490;2023-05-07T13:06:02;7.82;;;1.13;;
69954;SDS011;57279;55.912;37.490;2023-05-07T13:10:59;6.20;;;1.13;;
69954;SDS011;57279;55.912;37.490;2023-05-07T13:13:32;5.43;;;1.10;;
69954;SDS011;57279;55.912;37.490;2023-05-07T13:16:03;6.30;;;1.23;;
69954;SDS011;57279;55.912;37.490;2023-05-07T13:18:30;5.47;;;1.23;;
69954;SDS011;57279;55.912;37.490;2023-05-07T13:20:57;5.88;;;1.33;;
69954;SDS011;57279;55.912;37.490;2023-05-07T13:23:23;7.05;;;1.60;;
69954;SDS011;57279;55.912;37.490;2023-05-07T13:25:49;22.05;;;2.08;;
69954;SDS011;57279;55.912;37.490;2023-05-07T13:28:16;5.00;;;1.38;;
69954;SDS011;57279;55.912;37.490;2023-05-07T13:30:42;5.78;;;1.00;;
69954;SDS011;57279;55.912;37.490;2023-05-07T13:33:08;6.18;;;1.23;;
69954;SDS011;57279;55.912;37.490;2023-05-07T13:35:34;6.70;;;1.50;;
69954;SDS011;57279;55.912;37.490;2023-05-07T13:38:00;6.38;;;1.60;;
69954;SDS011;57279;55.912;37.490;2023-05-07T13:40:25;6.47;;;1.38;;
69954;SDS011;57279;55.912;37.490;2023-05-07T13:42:51;7.43;;;1.50;;
69954;SDS011;57279;55.912;37.490;2023-05-07T13:45:18;6.60;;;1.92;;
69954;SDS011;57279;55.912;37.490;2023-05-07T13:47:44;4.88;;;1.08;;
69954;SDS011;57279;55.912;37.490;2023-05-07T13:50:10;7.43;;;1.02;;
69954;SDS011;57279;55.912;37.490;2023-05-07T13:52:40;10.73;;;2.25;;
69954;SDS011;57279;55.912;37.490;2023-05-07T13:55:08;9.40;;;1.95;;
69954;SDS011;57279;55.912;37.490;2023-05-07T13:57:37;7.20;;;1.42;;
69954;SDS011;57279;55.912;37.490;2023-05-07T14:00:03;7.32;;;1.58;;
69954;SDS011;57279;55.912;37.490;2023-05-07T14:02:40;5.60;;;1.35;;
69954;SDS011;57279;55.912;37.490;2023-05-07T14:05:06;6.90;;;1.13;;
69954;SDS011;57279;55.912;37.490;2023-05-07T14:07:34;7.40;;;1.73;;
69954;SDS011;57279;55.912;37.490;2023-05-07T14:10:00;6.72;;;1.30;;
69954;SDS011;57279;55.912;37.490;2023-05-07T14:12:25;6.93;;;1.55;;
69954;SDS011;57279;55.912;37.490;2023-05-07T14:14:51;5.70;;;1.42;;
69954;SDS011;57279;55.912;37.490;2023-05-07T14:17:17;6.90;;;1.33;;
69954;SDS011;57279;55.912;37.490;2023-05-07T14:19:43;8.35;;;1.33;;
69954;SDS011;57279;55.912;37.490;2023-05-07T14:22:09;5.80;;;1.58;;
69954;SDS011;57279;55.912;37.490;2023-05-07T14:24:35;7.28;;;1.25;;
69954;SDS011;57279;55.912;37.490;2023-05-07T14:27:01;5.07;;;1.30;;
69954;SDS011;57279;55.912;37.490;2023-05-07T14:29:27;6.88;;;1.40;;
69954;SDS011;57279;55.912;37.490;2023-05-07T14:31:53;8.73;;;1.33;;
69954;SDS011;57279;55.912;37.490;2023-05-07T14:34:18;7.45;;;1.15;;
69954;SDS011;57279;55.912;37.490;2023-05-07T14:36:44;8.73;;;1.23;;
69954;SDS011;57279;55.912;37.490;2023-05-07T14:39:10;5.43;;;1.02;;
69954;SDS011;57279;55.912;37.490;2023-05-07T14:41:36;6.90;;;1.48;;
69954;SDS011;57279;55.912;37.490;2023-05-07T14:44:01;8.98;;;1.80;;
69954;SDS011;57279;55.912;37.490;2023-05-07T14:46:29;6.40;;;1.55;;
69954;SDS011;57279;55.912;37.490;2023-05-07T14:48:55;5.40;;;1.08;;
69954;SDS011;57279;55.912;37.490;2023-05-07T14:51:21;5.63;;;1.10;;
69954;SDS011;57279;55.912;37.490;2023-05-07T14:53:47;5.55;;;1.35;;
69954;SDS011;57279;55.912;37.490;2023-05-07T14:56:13;5.13;;;1.20;;
69954;SDS011;57279;55.912;37.490;2023-05-07T14:58:39;8.00;;;1.67;;
69954;SDS011;57279;55.912;37.490;2023-05-07T15:01:04;5.57;;;1.23;;
69954;SDS011;57279;55.912;37.490;2023-05-07T15:05:56;7.20;;;1.23;;
69954;SDS011;57279;55.912;37.490;2023-05-07T15:08:21;6.40;;;1.50;;
69954;SDS011;57279;55.912;37.490;2023-05-07T15:13:13;7.78;;;2.08;;
69954;SDS011;57279;55.912;37.490;2023-05-07T15:15:39;10.15;;;1.80;;
69954;SDS011;57279;55.912;37.490;2023-05-07T15:18:05;8.88;;;2.00;;
69954;SDS011;57279;55.912;37.490;2023-05-07T15:20:31;6.88;;;1.90;;
69954;SDS011;57279;55.912;37.490;2023-05-07T15:22:56;6.93;;;2.22;;
69954;SDS011;57279;55.912;37.490;2023-05-07T15:25:23;8.23;;;2.42;;
69954;SDS011;57279;55.912;37.490;2023-05-07T15:27:49;10.95;;;3.97;;
69954;SDS011;57279;55.912;37.490;2023-05-07T15:30:15;7.00;;;2.10;;
69954;SDS011;57279;55.912;37.490;2023-05-07T15:32:41;8.68;;;3.17;;
69954;SDS011;57279;55.912;37.490;2023-05-07T15:35:08;8.10;;;2.38;;
69954;SDS011;57279;55.912;37.490;2023-05-07T15:37:34;7.97;;;2.70;;
69954;SDS011;57279;55.912;37.490;2023-05-07T15:43:46;9.90;;;3.00;;
69954;SDS011;57279;55.912;37.490;2023-05-07T15:46:17;11.35;;;1.90;;
69954;SDS011;57279;55.912;37.490;2023-05-07T15:48:46;12.85;;;2.92;;
69954;SDS011;57279;55.912;37.490;2023-05-07T15:51:12;7.25;;;2.17;;
69954;SDS011;57279;55.912;37.490;2023-05-07T15:53:38;15.25;;;3.08;;
69954;SDS011;57279;55.912;37.490;2023-05-07T15:56:05;14.77;;;3.70;;
69954;SDS011;57279;55.912;37.490;2023-05-07T15:58:31;11.20;;;3.20;;
69954;SDS011;57279;55.912;37.490;2023-05-07T16:00:57;9.80;;;3.08;;
69954;SDS011;57279;55.912;37.490;2023-05-07T16:03:25;14.20;;;3.35;;
69954;SDS011;57279;55.912;37.490;2023-05-07T16:05:52;10.38;;;3.15;;
69954;SDS011;57279;55.912;37.490;2023-05-07T16:08:18;8.88;;;2.63;;
69954;SDS011;57279;55.912;37.490;2023-05-07T16:10:44;11.25;;;3.20;;
69954;SDS011;57279;55.912;37.490;2023-05-07T16:13:10;10.35;;;2.38;;
69954;SDS011;57279;55.912;37.490;2023-05-07T16:15:35;10.23;;;1.85;;
69954;SDS011;57279;55.912;37.490;2023-05-07T16:20:27;11.23;;;2.08;;
69954;SDS011;57279;55.912;37.490;2023-05-07T16:22:55;8.48;;;2.33;;
69954;SDS011;57279;55.912;37.490;2023-05-07T16:25:21;9.93;;;2.40;;
69954;SDS011;57279;55.912;37.490;2023-05-07T16:30:12;8.32;;;2.05;;
69954;SDS011;57279;55.912;37.490;2023-05-07T16:35:04;9.13;;;2.30;;